sensor_id;sensor_type;location;lat;lon;timestamp;P1;durP1;ratioP1;P2;durP2;ratioP2
8017;SDS011;4054;52.666;4.770;2023-04-03T00:00:26;57.17;;;53.08;;
8017;SDS011;4054;52.666;4.770;2023-04-03T00:00:58;56.67;;;52.97;;
8017;SDS011;4054;52.666;4.770;2023-04-03T00:01:32;56.38;;;52.47;;
8017;SDS011;4054;52.666;4.770;2023-04-03T00:02:04;56.05;;;52.45;;
8017;SDS011;4054;52.666;4.770;2023-04-03T00:02:36;57.05;;;52.95;;
8017;SDS011;4054;52.666;4.770;2023-04-03T00:03:09;56.58;;;52.70;;
8017;SDS011;4054;52.666;4.770;2023-04-03T00:03:41;56.30;;;52.47;;
8017;SDS011;4054;52.666;4.770;2023-04-03T00:04:15;56.10;;;52.50;;
8017;SDS011;4054;52.666;4.770;2023-04-03T00:04:47;56.65;;;52.92;;
8017;SDS011;4054;52.666;4.770;2023-04-03T00:05:19;57.50;;;53.30;;
8017;SDS011;4054;52.666;4.770;2023-04-03T00:05:52;56.35;;;52.55;;
8017;SDS011;4054;52.666;4.770;2023-04-03T00:06:24;56.45;;;52.75;;
8017;SDS011;4054;52.666;4.770;2023-04-03T00:06:56;56.40;;;52.47;;
8017;SDS011;4054;52.666;4.770;2023-04-03T00:07:29;56.28;;;52.38;;
8017;SDS011;4054;52.666;4.770;2023-04-03T00:08:01;56.70;;;52.80;;
8017;SDS011;4054;52.666;4.770;2023-04-03T00:08:34;56.22;;;52.50;;
8017;SDS011;4054;52.666;4.770;2023-04-03T00:09:07;56.25;;;52.55;;
8017;SDS011;4054;52.666;4.770;2023-04-03T00:09:40;56.05;;;52.35;;
8017;SDS011;4054;52.666;4.770;2023-04-03T00:10:14;56.28;;;52.38;;
8017;SDS011;4054;52.666;4.770;2023-04-03T00:10:46;56.97;;;53.00;;
8017;SDS011;4054;52.666;4.770;2023-04-03T00:11:20;57.92;;;53.42;;
8017;SDS011;4054;52.666;4.770;2023-04-03T00:11:53;56.25;;;52.35;;
8017;SDS011;4054;52.666;4.770;2023-04-03T00:12:25;56.60;;;52.70;;
8017;SDS011;4054;52.666;4.770;2023-04-03T00:12:58;56.50;;;52.80;;
8017;SDS011;4054;52.666;4.770;2023-04-03T00:13:31;56.63;;;52.83;;
8017;SDS011;4054;52.666;4.770;2023-04-03T00:14:03;57.67;;;53.33;;
8017;SDS011;4054;52.666;4.770;2023-04-03T00:14:36;57.33;;;53.38;;
8017;SDS011;4054;52.666;4.770;2023-04-03T00:15:09;57.28;;;53.15;;
8017;SDS011;4054;52.666;4.770;2023-04-03T00:15:41;56.83;;;53.00;;
8017;SDS011;4054;52.666;4.770;2023-04-03T00:16:17;56.63;;;52.83;;
8017;SDS011;4054;52.666;4.770;2023-04-03T00:16:49;57.15;;;53.25;;
8017;SDS011;4054;52.666;4.770;2023-04-03T00:17:21;57.17;;;53.08;;
8017;SDS011;4054;52.666;4.770;2023-04-03T00:17:54;57.50;;;53.15;;
8017;SDS011;4054;52.666;4.770;2023-04-03T00:18:29;56.78;;;52.88;;
8017;SDS011;4054;52.666;4.770;2023-04-03T00:19:05;56.90;;;52.80;;
8017;SDS011;4054;52.666;4.770;2023-04-03T00:19:37;57.03;;;53.15;;
8017;SDS011;4054;52.666;4.770;2023-04-03T00:20:10;56.33;;;52.45;;
8017;SDS011;4054;52.666;4.770;2023-04-03T00:20:42;56.15;;;52.30;;
8017;SDS011;4054;52.666;4.770;2023-04-03T00:21:14;56.97;;;53.00;;
8017;SDS011;4054;52.666;4.770;2023-04-03T00:21:55;57.03;;;53.03;;
8017;SDS011;4054;52.666;4.770;2023-04-03T00:22:27;56.88;;;52.85;;
8017;SDS011;4054;52.666;4.770;2023-04-03T00:23:00;55.60;;;52.00;;
8017;SDS011;4054;52.666;4.770;2023-04-03T00:23:32;57.55;;;53.40;;
8017;SDS011;4054;52.666;4.770;2023-04-03T00:24:06;57.92;;;53.72;;
8017;SDS011;4054;52.666;4.770;2023-04-03T00:24:38;56.83;;;52.83;;
8017;SDS011;4054;52.666;4.770;2023-04-03T00:25:10;55.97;;;52.28;;
8017;SDS011;4054;52.666;4.770;2023-04-03T00:25:44;56.63;;;52.78;;
8017;SDS011;4054;52.666;4.770;2023-04-03T00:26:16;56.47;;;52.47;;
8017;SDS011;4054;52.666;4.770;2023-04-03T00:26:49;56.38;;;52.67;;
8017;SDS011;4054;52.666;4.770;2023-04-03T00:27:21;56.28;;;52.60;;
8017;SDS011;4054;52.666;4.770;2023-04-03T00:27:53;56.70;;;52.78;;
8017;SDS011;4054;52.666;4.770;2023-04-03T00:28:26;56.75;;;52.70;;
8017;SDS011;4054;52.666;4.770;2023-04-03T00:28:59;56.30;;;52.47;;
8017;SDS011;4054;52.666;4.770;2023-04-03T00:29:31;56.80;;;53.10;;
8017;SDS011;4054;52.666;4.770;2023-04-03T00:30:03;57.00;;;52.97;;
8017;SDS011;4054;52.666;4.770;2023-04-03T00:30:36;56.65;;;52.85;;
8017;SDS011;4054;52.666;4.770;2023-04-03T00:31:09;56.88;;;53.08;;
8017;SDS011;4054;52.666;4.770;2023-04-03T00:31:42;56.50;;;52.80;;
8017;SDS011;4054;52.666;4.770;2023-04-03T00:32:14;56.70;;;52.90;;
8017;SDS011;4054;52.666;4.770;2023-04-03T00:32:47;56.67;;;52.72;;
8017;SDS011;4054;52.666;4.770;2023-04-03T00:33:19;55.78;;;52.17;;
8017;SDS011;4054;52.666;4.770;2023-04-03T00:33:53;55.85;;;52.15;;
8017;SDS011;4054;52.666;4.770;2023-04-03T00:34:25;56.45;;;52.60;;
8017;SDS011;4054;52.666;4.770;2023-04-03T00:34:57;57.28;;;52.95;;
8017;SDS011;4054;52.666;4.770;2023-04-03T00:35:30;56.40;;;52.60;;
8017;SDS011;4054;52.666;4.770;2023-04-03T00:36:06;56.85;;;52.70;;
8017;SDS011;4054;52.666;4.770;2023-04-03T00:36:38;56.22;;;52.40;;
8017;SDS011;4054;52.666;4.770;2023-04-03T00:37:11;56.88;;;52.88;;
8017;SDS011;4054;52.666;4.770;2023-04-03T00:37:43;56.08;;;52.17;;
8017;SDS011;4054;52.666;4.770;2023-04-03T00:38:16;55.95;;;52.35;;
8017;SDS011;4054;52.666;4.770;2023-04-03T00:38:49;56.00;;;52.22;;
8017;SDS011;4054;52.666;4.770;2023-04-03T00:39:22;56.03;;;52.30;;
8017;SDS011;4054;52.666;4.770;2023-04-03T00:39:54;56.55;;;52.80;;
8017;SDS011;4054;52.666;4.770;2023-04-03T00:40:27;56.38;;;52.50;;
8017;SDS011;4054;52.666;4.770;2023-04-03T00:41:06;57.10;;;53.00;;
8017;SDS011;4054;52.666;4.770;2023-04-03T00:41:39;56.08;;;52.08;;
8017;SDS011;4054;52.666;4.770;2023-04-03T00:42:11;56.63;;;52.55;;
8017;SDS011;4054;52.666;4.770;2023-04-03T00:42:44;56.42;;;52.42;;
8017;SDS011;4054;52.666;4.770;2023-04-03T00:43:20;56.83;;;52.78;;
8017;SDS011;4054;52.666;4.770;2023-04-03T00:43:54;56.80;;;52.90;;
8017;SDS011;4054;52.666;4.770;2023-04-03T00:45:33;56.20;;;52.25;;
8017;SDS011;4054;52.666;4.770;2023-04-03T00:46:07;56.25;;;52.35;;
8017;SDS011;4054;52.666;4.770;2023-04-03T00:46:40;55.85;;;52.15;;
8017;SDS011;4054;52.666;4.770;2023-04-03T00:47:13;57.88;;;53.67;;
8017;SDS011;4054;52.666;4.770;2023-04-03T00:47:47;56.97;;;53.00;;
8017;SDS011;4054;52.666;4.770;2023-04-03T00:48:21;56.47;;;52.38;;
8017;SDS011;4054;52.666;4.770;2023-04-03T00:48:55;56.35;;;52.50;;
8017;SDS011;4054;52.666;4.770;2023-04-03T00:49:28;56.20;;;52.35;;
8017;SDS011;4054;52.666;4.770;2023-04-03T00:50:00;56.28;;;52.38;;
8017;SDS011;4054;52.666;4.770;2023-04-03T00:50:34;56.30;;;52.40;;
8017;SDS011;4054;52.666;4.770;2023-04-03T00:51:11;55.90;;;52.13;;
8017;SDS011;4054;52.666;4.770;2023-04-03T00:51:45;56.28;;;52.47;;
8017;SDS011;4054;52.666;4.770;2023-04-03T00:52:19;56.13;;;52.30;;
8017;SDS011;4054;52.666;4.770;2023-04-03T00:52:54;56.67;;;52.88;;
8017;SDS011;4054;52.666;4.770;2023-04-03T00:53:28;55.83;;;52.00;;
8017;SDS011;4054;52.666;4.770;2023-04-03T00:54:04;56.05;;;52.22;;
8017;SDS011;4054;52.666;4.770;2023-04-03T00:54:37;55.80;;;52.00;;
8017;SDS011;4054;52.666;4.770;2023-04-03T00:55:11;55.92;;;52.15;;
8017;SDS011;4054;52.666;4.770;2023-04-03T00:55:46;56.55;;;52.75;;
8017;SDS011;4054;52.666;4.770;2023-04-03T00:56:21;56.70;;;52.80;;
8017;SDS011;4054;52.666;4.770;2023-04-03T00:56:57;56.92;;;52.83;;
8017;SDS011;4054;52.666;4.770;2023-04-03T00:57:30;56.47;;;52.70;;
8017;SDS011;4054;52.666;4.770;2023-04-03T00:58:03;57.08;;;52.97;;
8017;SDS011;4054;52.666;4.770;2023-04-03T00:58:39;55.90;;;52.20;;
8017;SDS011;4054;52.666;4.770;2023-04-03T00:59:15;56.58;;;52.67;;
8017;SDS011;4054;52.666;4.770;2023-04-03T00:59:54;55.95;;;52.25;;
8017;SDS011;4054;52.666;4.770;2023-04-03T01:00:30;56.40;;;52.50;;
8017;SDS011;4054;52.666;4.770;2023-04-03T01:01:03;56.22;;;52.50;;
8017;SDS011;4054;52.666;4.770;2023-04-03T01:01:40;56.58;;;52.67;;
8017;SDS011;4054;52.666;4.770;2023-04-03T01:02:13;55.95;;;52.25;;
8017;SDS011;4054;52.666;4.770;2023-04-03T01:02:46;56.20;;;52.30;;
8017;SDS011;4054;52.666;4.770;2023-04-03T01:03:19;56.13;;;52.22;;
8017;SDS011;4054;52.666;4.770;2023-04-03T01:03:51;55.33;;;51.72;;
8017;SDS011;4054;52.666;4.770;2023-04-03T01:04:26;56.47;;;52.28;;
8017;SDS011;4054;52.666;4.770;2023-04-03T01:05:00;56.38;;;52.38;;
8017;SDS011;4054;52.666;4.770;2023-04-03T01:05:32;56.47;;;52.55;;
8017;SDS011;4054;52.666;4.770;2023-04-03T01:06:06;55.92;;;52.22;;
8017;SDS011;4054;52.666;4.770;2023-04-03T01:06:41;56.47;;;52.50;;
8017;SDS011;4054;52.666;4.770;2023-04-03T01:07:14;56.03;;;52.25;;
8017;SDS011;4054;52.666;4.770;2023-04-03T01:07:49;56.55;;;52.75;;
8017;SDS011;4054;52.666;4.770;2023-04-03T01:08:22;56.45;;;52.38;;
8017;SDS011;4054;52.666;4.770;2023-04-03T01:08:54;56.33;;;52.63;;
8017;SDS011;4054;52.666;4.770;2023-04-03T01:09:28;56.20;;;52.45;;
8017;SDS011;4054;52.666;4.770;2023-04-03T01:10:02;56.20;;;52.25;;
8017;SDS011;4054;52.666;4.770;2023-04-03T01:10:36;55.90;;;52.10;;
8017;SDS011;4054;52.666;4.770;2023-04-03T01:11:09;56.35;;;52.38;;
8017;SDS011;4054;52.666;4.770;2023-04-03T01:11:43;56.25;;;52.55;;
8017;SDS011;4054;52.666;4.770;2023-04-03T01:12:15;55.95;;;52.25;;
8017;SDS011;4054;52.666;4.770;2023-04-03T01:12:50;57.25;;;53.35;;
8017;SDS011;4054;52.666;4.770;2023-04-03T01:13:24;56.83;;;52.63;;
8017;SDS011;4054;52.666;4.770;2023-04-03T01:13:57;56.30;;;52.38;;
8017;SDS011;4054;52.666;4.770;2023-04-03T01:14:33;57.15;;;53.25;;
8017;SDS011;4054;52.666;4.770;2023-04-03T01:15:06;56.45;;;52.38;;
8017;SDS011;4054;52.666;4.770;2023-04-03T01:15:39;56.10;;;52.42;;
8017;SDS011;4054;52.666;4.770;2023-04-03T01:16:16;55.78;;;51.90;;
8017;SDS011;4054;52.666;4.770;2023-04-03T01:16:52;56.13;;;52.33;;
8017;SDS011;4054;52.666;4.770;2023-04-03T01:17:27;56.33;;;52.33;;
8017;SDS011;4054;52.666;4.770;2023-04-03T01:18:00;56.15;;;52.28;;
8017;SDS011;4054;52.666;4.770;2023-04-03T01:18:33;56.42;;;52.53;;
8017;SDS011;4054;52.666;4.770;2023-04-03T01:19:10;56.00;;;52.00;;
8017;SDS011;4054;52.666;4.770;2023-04-03T01:19:47;55.53;;;51.92;;
8017;SDS011;4054;52.666;4.770;2023-04-03T01:21:54;56.50;;;52.60;;
8017;SDS011;4054;52.666;4.770;2023-04-03T01:22:35;56.20;;;52.40;;
8017;SDS011;4054;52.666;4.770;2023-04-03T01:23:17;56.25;;;52.40;;
8017;SDS011;4054;52.666;4.770;2023-04-03T01:24:06;55.90;;;52.10;;
8017;SDS011;4054;52.666;4.770;2023-04-03T01:24:47;56.08;;;52.30;;
8017;SDS011;4054;52.666;4.770;2023-04-03T01:25:19;56.30;;;52.55;;
8017;SDS011;4054;52.666;4.770;2023-04-03T01:25:52;56.22;;;52.35;;
8017;SDS011;4054;52.666;4.770;2023-04-03T01:26:27;56.50;;;52.70;;
8017;SDS011;4054;52.666;4.770;2023-04-03T01:27:01;56.05;;;52.35;;
8017;SDS011;4054;52.666;4.770;2023-04-03T01:27:36;56.35;;;52.35;;
8017;SDS011;4054;52.666;4.770;2023-04-03T01:28:08;56.70;;;52.90;;
8017;SDS011;4054;52.666;4.770;2023-04-03T01:28:42;56.67;;;52.60;;
8017;SDS011;4054;52.666;4.770;2023-04-03T01:29:15;56.47;;;52.40;;
8017;SDS011;4054;52.666;4.770;2023-04-03T01:29:47;56.65;;;52.65;;
8017;SDS011;4054;52.666;4.770;2023-04-03T01:30:20;56.00;;;52.20;;
8017;SDS011;4054;52.666;4.770;2023-04-03T01:30:58;57.03;;;53.20;;
8017;SDS011;4054;52.666;4.770;2023-04-03T01:31:49;56.50;;;52.60;;
8017;SDS011;4054;52.666;4.770;2023-04-03T01:32:23;55.97;;;52.28;;
8017;SDS011;4054;52.666;4.770;2023-04-03T01:32:56;56.25;;;52.45;;
8017;SDS011;4054;52.666;4.770;2023-04-03T01:33:28;55.55;;;51.95;;
8017;SDS011;4054;52.666;4.770;2023-04-03T01:34:02;56.30;;;52.60;;
8017;SDS011;4054;52.666;4.770;2023-04-03T01:34:37;56.38;;;52.38;;
8017;SDS011;4054;52.666;4.770;2023-04-03T01:35:11;56.20;;;52.40;;
8017;SDS011;4054;52.666;4.770;2023-04-03T01:35:43;55.92;;;52.13;;
8017;SDS011;4054;52.666;4.770;2023-04-03T01:36:17;55.92;;;52.20;;
8017;SDS011;4054;52.666;4.770;2023-04-03T01:36:52;56.50;;;52.60;;
8017;SDS011;4054;52.666;4.770;2023-04-03T01:37:25;55.88;;;52.17;;
8017;SDS011;4054;52.666;4.770;2023-04-03T01:37:57;56.92;;;53.08;;
8017;SDS011;4054;52.666;4.770;2023-04-03T01:38:30;57.20;;;52.97;;
8017;SDS011;4054;52.666;4.770;2023-04-03T01:39:03;56.63;;;52.80;;
8017;SDS011;4054;52.666;4.770;2023-04-03T01:39:35;56.13;;;52.38;;
8017;SDS011;4054;52.666;4.770;2023-04-03T01:40:08;56.00;;;52.35;;
8017;SDS011;4054;52.666;4.770;2023-04-03T01:40:41;56.63;;;52.70;;
8017;SDS011;4054;52.666;4.770;2023-04-03T01:41:13;55.97;;;52.17;;
8017;SDS011;4054;52.666;4.770;2023-04-03T01:41:48;56.42;;;52.33;;
8017;SDS011;4054;52.666;4.770;2023-04-03T01:42:40;55.85;;;51.97;;
8017;SDS011;4054;52.666;4.770;2023-04-03T01:43:12;56.42;;;52.42;;
8017;SDS011;4054;52.666;4.770;2023-04-03T01:43:45;55.85;;;52.05;;
8017;SDS011;4054;52.666;4.770;2023-04-03T01:44:17;56.22;;;52.17;;
8017;SDS011;4054;52.666;4.770;2023-04-03T01:44:49;56.05;;;52.35;;
8017;SDS011;4054;52.666;4.770;2023-04-03T01:45:22;56.00;;;52.33;;
8017;SDS011;4054;52.666;4.770;2023-04-03T01:45:54;56.03;;;52.28;;
8017;SDS011;4054;52.666;4.770;2023-04-03T01:46:27;55.67;;;51.80;;
8017;SDS011;4054;52.666;4.770;2023-04-03T01:47:02;55.92;;;52.25;;
8017;SDS011;4054;52.666;4.770;2023-04-03T01:47:37;55.70;;;52.00;;
8017;SDS011;4054;52.666;4.770;2023-04-03T01:48:10;56.60;;;52.70;;
8017;SDS011;4054;52.666;4.770;2023-04-03T01:48:43;55.95;;;52.22;;
8017;SDS011;4054;52.666;4.770;2023-04-03T01:49:15;56.38;;;52.33;;
8017;SDS011;4054;52.666;4.770;2023-04-03T01:49:47;55.60;;;51.80;;
8017;SDS011;4054;52.666;4.770;2023-04-03T01:50:20;56.33;;;52.33;;
8017;SDS011;4054;52.666;4.770;2023-04-03T01:50:52;56.58;;;52.55;;
8017;SDS011;4054;52.666;4.770;2023-04-03T01:51:25;56.55;;;52.38;;
8017;SDS011;4054;52.666;4.770;2023-04-03T01:51:58;55.72;;;52.03;;
8017;SDS011;4054;52.666;4.770;2023-04-03T01:52:30;56.38;;;52.22;;
8017;SDS011;4054;52.666;4.770;2023-04-03T01:53:02;56.45;;;52.45;;
8017;SDS011;4054;52.666;4.770;2023-04-03T01:53:34;57.15;;;53.17;;
8017;SDS011;4054;52.666;4.770;2023-04-03T01:54:07;56.50;;;52.58;;
8017;SDS011;4054;52.666;4.770;2023-04-03T01:54:39;56.80;;;52.80;;
8017;SDS011;4054;52.666;4.770;2023-04-03T01:55:12;56.53;;;52.42;;
8017;SDS011;4054;52.666;4.770;2023-04-03T01:55:44;55.75;;;51.85;;
8017;SDS011;4054;52.666;4.770;2023-04-03T01:56:16;56.47;;;52.25;;
8017;SDS011;4054;52.666;4.770;2023-04-03T01:56:49;56.83;;;52.65;;
8017;SDS011;4054;52.666;4.770;2023-04-03T01:57:24;57.13;;;52.92;;
8017;SDS011;4054;52.666;4.770;2023-04-03T01:57:56;56.92;;;53.03;;
8017;SDS011;4054;52.666;4.770;2023-04-03T01:58:28;57.20;;;53.13;;
8017;SDS011;4054;52.666;4.770;2023-04-03T01:59:01;58.17;;;53.50;;
8017;SDS011;4054;52.666;4.770;2023-04-03T01:59:33;57.60;;;53.50;;
8017;SDS011;4054;52.666;4.770;2023-04-03T02:00:06;56.58;;;52.50;;
8017;SDS011;4054;52.666;4.770;2023-04-03T02:01:47;56.53;;;52.65;;
8017;SDS011;4054;52.666;4.770;2023-04-03T02:02:22;57.15;;;52.90;;
8017;SDS011;4054;52.666;4.770;2023-04-03T02:02:55;57.08;;;53.05;;
8017;SDS011;4054;52.666;4.770;2023-04-03T02:03:29;56.35;;;52.40;;
8017;SDS011;4054;52.666;4.770;2023-04-03T02:04:03;56.22;;;52.38;;
8017;SDS011;4054;52.666;4.770;2023-04-03T02:04:35;55.42;;;51.85;;
8017;SDS011;4054;52.666;4.770;2023-04-03T02:05:07;55.70;;;51.72;;
8017;SDS011;4054;52.666;4.770;2023-04-03T02:05:41;55.75;;;52.08;;
8017;SDS011;4054;52.666;4.770;2023-04-03T02:06:14;55.90;;;52.10;;
8017;SDS011;4054;52.666;4.770;2023-04-03T02:06:46;55.55;;;51.80;;
8017;SDS011;4054;52.666;4.770;2023-04-03T02:07:19;56.50;;;52.70;;
8017;SDS011;4054;52.666;4.770;2023-04-03T02:07:51;55.42;;;51.47;;
8017;SDS011;4054;52.666;4.770;2023-04-03T02:08:23;55.70;;;51.80;;
8017;SDS011;4054;52.666;4.770;2023-04-03T02:08:56;56.63;;;52.42;;
8017;SDS011;4054;52.666;4.770;2023-04-03T02:09:28;55.83;;;52.15;;
8017;SDS011;4054;52.666;4.770;2023-04-03T02:10:02;55.90;;;51.90;;
8017;SDS011;4054;52.666;4.770;2023-04-03T02:10:34;56.55;;;52.55;;
8017;SDS011;4054;52.666;4.770;2023-04-03T02:11:06;55.95;;;51.95;;
8017;SDS011;4054;52.666;4.770;2023-04-03T02:11:39;56.60;;;52.70;;
8017;SDS011;4054;52.666;4.770;2023-04-03T02:12:11;55.95;;;52.13;;
8017;SDS011;4054;52.666;4.770;2023-04-03T02:12:43;55.70;;;51.80;;
8017;SDS011;4054;52.666;4.770;2023-04-03T02:13:17;56.60;;;52.55;;
8017;SDS011;4054;52.666;4.770;2023-04-03T02:13:49;56.00;;;52.17;;
8017;SDS011;4054;52.666;4.770;2023-04-03T02:14:21;57.45;;;52.90;;
8017;SDS011;4054;52.666;4.770;2023-04-03T02:14:55;55.25;;;51.75;;
8017;SDS011;4054;52.666;4.770;2023-04-03T02:15:27;55.88;;;52.17;;
8017;SDS011;4054;52.666;4.770;2023-04-03T02:15:58;55.88;;;52.08;;
8017;SDS011;4054;52.666;4.770;2023-04-03T02:16:32;55.70;;;51.95;;
8017;SDS011;4054;52.666;4.770;2023-04-03T02:17:04;55.70;;;52.10;;
8017;SDS011;4054;52.666;4.770;2023-04-03T02:17:41;56.35;;;52.30;;
8017;SDS011;4054;52.666;4.770;2023-04-03T02:18:15;56.30;;;52.28;;
8017;SDS011;4054;52.666;4.770;2023-04-03T02:18:47;56.17;;;52.08;;
8017;SDS011;4054;52.666;4.770;2023-04-03T02:19:19;56.47;;;52.67;;
8017;SDS011;4054;52.666;4.770;2023-04-03T02:19:52;56.40;;;52.53;;
8017;SDS011;4054;52.666;4.770;2023-04-03T02:20:24;55.55;;;51.83;;
8017;SDS011;4054;52.666;4.770;2023-04-03T02:20:57;55.90;;;52.00;;
8017;SDS011;4054;52.666;4.770;2023-04-03T02:21:30;55.88;;;52.08;;
8017;SDS011;4054;52.666;4.770;2023-04-03T02:22:03;55.75;;;52.03;;
8017;SDS011;4054;52.666;4.770;2023-04-03T02:22:36;55.20;;;51.60;;
8017;SDS011;4054;52.666;4.770;2023-04-03T02:23:08;55.97;;;51.97;;
8017;SDS011;4054;52.666;4.770;2023-04-03T02:23:41;55.92;;;52.03;;
8017;SDS011;4054;52.666;4.770;2023-04-03T02:24:13;55.85;;;52.05;;
8017;SDS011;4054;52.666;4.770;2023-04-03T02:24:46;55.38;;;51.83;;
8017;SDS011;4054;52.666;4.770;2023-04-03T02:25:18;55.55;;;51.75;;
8017;SDS011;4054;52.666;4.770;2023-04-03T02:25:51;56.05;;;52.00;;
8017;SDS011;4054;52.666;4.770;2023-04-03T02:26:23;55.30;;;51.75;;
8017;SDS011;4054;52.666;4.770;2023-04-03T02:26:57;55.88;;;52.28;;
8017;SDS011;4054;52.666;4.770;2023-04-03T02:27:29;56.63;;;52.70;;
8017;SDS011;4054;52.666;4.770;2023-04-03T02:28:01;55.65;;;51.65;;
8017;SDS011;4054;52.666;4.770;2023-04-03T02:28:34;56.42;;;52.35;;
8017;SDS011;4054;52.666;4.770;2023-04-03T02:29:07;56.30;;;52.50;;
8017;SDS011;4054;52.666;4.770;2023-04-03T02:29:39;56.30;;;52.50;;
8017;SDS011;4054;52.666;4.770;2023-04-03T02:30:12;55.95;;;52.28;;
8017;SDS011;4054;52.666;4.770;2023-04-03T02:30:46;56.55;;;52.60;;
8017;SDS011;4054;52.666;4.770;2023-04-03T02:31:18;56.63;;;52.45;;
8017;SDS011;4054;52.666;4.770;2023-04-03T02:31:50;55.92;;;51.95;;
8017;SDS011;4054;52.666;4.770;2023-04-03T02:32:24;55.85;;;51.85;;
8017;SDS011;4054;52.666;4.770;2023-04-03T02:32:58;56.30;;;52.35;;
8017;SDS011;4054;52.666;4.770;2023-04-03T02:33:31;55.70;;;52.00;;
8017;SDS011;4054;52.666;4.770;2023-04-03T02:34:04;56.17;;;52.20;;
8017;SDS011;4054;52.666;4.770;2023-04-03T02:34:38;55.80;;;52.20;;
8017;SDS011;4054;52.666;4.770;2023-04-03T02:35:11;55.72;;;51.88;;
8017;SDS011;4054;52.666;4.770;2023-04-03T02:35:44;55.85;;;51.50;;
8017;SDS011;4054;52.666;4.770;2023-04-03T02:36:25;55.03;;;51.33;;
8017;SDS011;4054;52.666;4.770;2023-04-03T02:37:01;55.90;;;51.90;;
8017;SDS011;4054;52.666;4.770;2023-04-03T02:37:34;55.45;;;51.78;;
8017;SDS011;4054;52.666;4.770;2023-04-03T02:38:06;55.28;;;51.65;;
8017;SDS011;4054;52.666;4.770;2023-04-03T02:38:39;55.42;;;51.78;;
8017;SDS011;4054;52.666;4.770;2023-04-03T02:39:13;55.45;;;51.65;;
8017;SDS011;4054;52.666;4.770;2023-04-03T02:39:46;54.72;;;51.22;;
8017;SDS011;4054;52.666;4.770;2023-04-03T02:40:18;55.38;;;51.70;;
8017;SDS011;4054;52.666;4.770;2023-04-03T02:40:51;55.85;;;51.95;;
8017;SDS011;4054;52.666;4.770;2023-04-03T02:41:23;56.15;;;51.97;;
8017;SDS011;4054;52.666;4.770;2023-04-03T02:41:57;56.30;;;52.22;;
8017;SDS011;4054;52.666;4.770;2023-04-03T02:42:31;55.67;;;51.88;;
8017;SDS011;4054;52.666;4.770;2023-04-03T02:43:04;56.10;;;52.10;;
8017;SDS011;4054;52.666;4.770;2023-04-03T02:43:36;56.33;;;52.33;;
8017;SDS011;4054;52.666;4.770;2023-04-03T02:44:10;55.75;;;51.90;;
8017;SDS011;4054;52.666;4.770;2023-04-03T02:44:42;56.22;;;52.25;;
8017;SDS011;4054;52.666;4.770;2023-04-03T02:45:14;55.22;;;51.40;;
8017;SDS011;4054;52.666;4.770;2023-04-03T02:45:47;55.70;;;51.70;;
8017;SDS011;4054;52.666;4.770;2023-04-03T02:46:19;55.75;;;51.97;;
8017;SDS011;4054;52.666;4.770;2023-04-03T02:46:51;55.65;;;51.63;;
8017;SDS011;4054;52.666;4.770;2023-04-03T02:47:23;55.17;;;51.58;;
8017;SDS011;4054;52.666;4.770;2023-04-03T02:47:56;55.40;;;51.60;;
8017;SDS011;4054;52.666;4.770;2023-04-03T02:48:30;55.72;;;51.80;;
8017;SDS011;4054;52.666;4.770;2023-04-03T02:49:02;55.67;;;51.83;;
8017;SDS011;4054;52.666;4.770;2023-04-03T02:49:37;56.40;;;52.15;;
8017;SDS011;4054;52.666;4.770;2023-04-03T02:50:09;55.72;;;52.08;;
8017;SDS011;4054;52.666;4.770;2023-04-03T02:50:41;55.25;;;51.55;;
8017;SDS011;4054;52.666;4.770;2023-04-03T02:51:14;55.42;;;51.53;;
8017;SDS011;4054;52.666;4.770;2023-04-03T02:51:46;55.67;;;51.92;;
8017;SDS011;4054;52.666;4.770;2023-04-03T02:52:19;56.38;;;52.15;;
8017;SDS011;4054;52.666;4.770;2023-04-03T02:52:52;55.65;;;51.65;;
8017;SDS011;4054;52.666;4.770;2023-04-03T02:53:25;55.35;;;51.75;;
8017;SDS011;4054;52.666;4.770;2023-04-03T02:53:57;56.03;;;52.13;;
8017;SDS011;4054;52.666;4.770;2023-04-03T02:54:34;55.83;;;51.88;;
8017;SDS011;4054;52.666;4.770;2023-04-03T02:55:12;55.67;;;51.88;;
8017;SDS011;4054;52.666;4.770;2023-04-03T02:55:45;55.42;;;51.67;;
8017;SDS011;4054;52.666;4.770;2023-04-03T02:56:17;55.72;;;52.10;;
8017;SDS011;4054;52.666;4.770;2023-04-03T02:56:51;56.25;;;52.10;;
8017;SDS011;4054;52.666;4.770;2023-04-03T02:57:23;56.10;;;52.25;;
8017;SDS011;4054;52.666;4.770;2023-04-03T02:57:55;55.85;;;52.10;;
8017;SDS011;4054;52.666;4.770;2023-04-03T02:58:29;56.58;;;52.45;;
8017;SDS011;4054;52.666;4.770;2023-04-03T02:59:02;56.60;;;52.53;;
8017;SDS011;4054;52.666;4.770;2023-04-03T02:59:35;56.28;;;52.08;;
8017;SDS011;4054;52.666;4.770;2023-04-03T03:00:13;56.30;;;51.95;;
8017;SDS011;4054;52.666;4.770;2023-04-03T03:00:45;55.83;;;51.90;;
8017;SDS011;4054;52.666;4.770;2023-04-03T03:01:17;55.55;;;51.80;;
8017;SDS011;4054;52.666;4.770;2023-04-03T03:01:51;55.97;;;52.08;;
8017;SDS011;4054;52.666;4.770;2023-04-03T03:02:23;55.78;;;51.97;;
8017;SDS011;4054;52.666;4.770;2023-04-03T03:02:56;55.42;;;51.53;;
8017;SDS011;4054;52.666;4.770;2023-04-03T03:03:30;55.67;;;51.90;;
8017;SDS011;4054;52.666;4.770;2023-04-03T03:04:02;56.88;;;52.38;;
8017;SDS011;4054;52.666;4.770;2023-04-03T03:04:34;56.88;;;52.65;;
8017;SDS011;4054;52.666;4.770;2023-04-03T03:05:08;56.75;;;52.50;;
8017;SDS011;4054;52.666;4.770;2023-04-03T03:05:40;56.53;;;52.53;;
8017;SDS011;4054;52.666;4.770;2023-04-03T03:06:13;57.58;;;53.17;;
8017;SDS011;4054;52.666;4.770;2023-04-03T03:06:47;58.15;;;53.55;;
8017;SDS011;4054;52.666;4.770;2023-04-03T03:07:19;58.40;;;53.53;;
8017;SDS011;4054;52.666;4.770;2023-04-03T03:07:52;58.25;;;53.78;;
8017;SDS011;4054;52.666;4.770;2023-04-03T03:08:24;58.85;;;54.00;;
8017;SDS011;4054;52.666;4.770;2023-04-03T03:08:56;59.58;;;54.47;;
8017;SDS011;4054;52.666;4.770;2023-04-03T03:09:29;58.83;;;53.83;;
8017;SDS011;4054;52.666;4.770;2023-04-03T03:10:02;58.40;;;53.90;;
8017;SDS011;4054;52.666;4.770;2023-04-03T03:10:35;58.45;;;53.97;;
8017;SDS011;4054;52.666;4.770;2023-04-03T03:11:09;58.25;;;53.60;;
8017;SDS011;4054;52.666;4.770;2023-04-03T03:11:41;59.00;;;53.90;;
8017;SDS011;4054;52.666;4.770;2023-04-03T03:12:13;58.97;;;54.00;;
8017;SDS011;4054;52.666;4.770;2023-04-03T03:12:47;60.03;;;54.72;;
8017;SDS011;4054;52.666;4.770;2023-04-03T03:13:19;60.03;;;55.08;;
8017;SDS011;4054;52.666;4.770;2023-04-03T03:13:51;58.42;;;53.95;;
8017;SDS011;4054;52.666;4.770;2023-04-03T03:14:24;60.53;;;55.45;;
8017;SDS011;4054;52.666;4.770;2023-04-03T03:14:56;58.38;;;53.88;;
8017;SDS011;4054;52.666;4.770;2023-04-03T03:15:28;59.03;;;54.33;;
8017;SDS011;4054;52.666;4.770;2023-04-03T03:16:01;58.47;;;53.75;;
8017;SDS011;4054;52.666;4.770;2023-04-03T03:16:36;57.33;;;52.90;;
8017;SDS011;4054;52.666;4.770;2023-04-03T03:17:09;56.97;;;52.50;;
8017;SDS011;4054;52.666;4.770;2023-04-03T03:17:42;57.42;;;53.10;;
8017;SDS011;4054;52.666;4.770;2023-04-03T03:18:15;57.20;;;52.75;;
8017;SDS011;4054;52.666;4.770;2023-04-03T03:18:49;56.47;;;51.95;;
8017;SDS011;4054;52.666;4.770;2023-04-03T03:19:21;55.97;;;52.17;;
8017;SDS011;4054;52.666;4.770;2023-04-03T03:19:56;55.88;;;52.13;;
8017;SDS011;4054;52.666;4.770;2023-04-03T03:20:28;55.50;;;51.80;;
8017;SDS011;4054;52.666;4.770;2023-04-03T03:21:04;56.30;;;52.00;;
8017;SDS011;4054;52.666;4.770;2023-04-03T03:21:41;56.63;;;52.42;;
8017;SDS011;4054;52.666;4.770;2023-04-03T03:22:16;55.95;;;51.83;;
8017;SDS011;4054;52.666;4.770;2023-04-03T03:22:51;55.90;;;51.78;;
8017;SDS011;4054;52.666;4.770;2023-04-03T03:23:24;56.13;;;52.03;;
8017;SDS011;4054;52.666;4.770;2023-04-03T03:23:58;57.05;;;52.53;;
8017;SDS011;4054;52.666;4.770;2023-04-03T03:24:32;57.28;;;52.78;;
8017;SDS011;4054;52.666;4.770;2023-04-03T03:25:07;57.92;;;53.33;;
8017;SDS011;4054;52.666;4.770;2023-04-03T03:25:41;58.67;;;53.53;;